Danbury, NH (03230)

10:35 PM EDT on April 21, 2015 (GMT -0400)
Heavens Plateau | | Change Station
CLOSE
Current Station
Personal Weather Station
Location: Danbury, NH
Elevation: 1020 ft
Nearby Weather Stations
Active Advisory: Flood Warning

Elev 1020 ft 43.52 °N, 71.82 °W | Updated 33 seconds ago

Clear
Clear
37.8 °F
Feels Like 38 °F
N
0.0
Wind Variable Wind from North
Gusts 0.0 mph

Today
High -- | Low -- °F
--% Chance of Precip.
Yesterday
High -- | Low -- °F
Precip. -- in
5:55 AM 7:37 PM
Waxing Crescent, 14% visible
Pressure 29.74 in
Visibility 0.5 miles
Clouds
Windchill 38 °F
Dew Point 35 °F
Humidity 90%
Rainfall 0.41 in
Snow Depth Not available.
UV Not available.
Pollen .50 out of 12
Air Quality Not available.
Flu Activity Regional
METAR K1P1 220235Z AUTO 00000KT 1/2SM FG VV005 03/03 A2974 RMK AO2 T00250025

More Conditions Fewer Conditions

Pressure 29.74 in
Visibility 0.5 miles
Clouds
Windchill 38 °F
Dew Point 35 °F
Humidity 90%
Rainfall 0.41 in
Snow Depth Not available.
UV Not available.
Pollen .50 out of 12
Air Quality Not available.
Flu Activity Regional
METAR K1P1 220235Z AUTO 00000KT 1/2SM FG VV005 03/03 A2974 RMK AO2 T00250025

More Conditions Fewer Conditions

10-Day Weather Forecast

Almanac

Astronomy

Apr. 21, 2015 Rise Set
Actual Time
Civil Twilight
Nautical Twilight
Astronomical Twilight
Moon
Length of Visible Light
Length of Day
Tomorrow will be .
, % of the Moon is Illuminated

Today's Extremes

State Highs State Lows

Community

WunderPhotos

Upload Photos

1,815,637 photos uploaded!

WunderBlogs® & News

Nearby

Air Quality

  Air Quality AQ Index Pollutant
Not available.

Snow Depth

Station Depth Elevation

Earthquake Activity

City Distance Mag. Time & Date
Minimum magnitude displayed is 2.5.

Coastal Water Temperatures

Place Temperature

Stations

Nearby Weather Stations

Station Location Temp. Windchill Dew Point Humidity Wind Precip. Elev Updated Type
                   
Flood Warning
Statement as of 8:30 PM EDT on April 21, 2015

The Flood Warning continues for
the Suncook river at North Chichester.
* Until Wednesday evening.
* At 08pm Tuesday the stage was 7.3 feet.
* Flood stage is 7.0 feet.
* The river will continue rising to near 7.5 feet by midnight. The
river will fall below flood stage tomorrow afternoon.



Lat... Lon 4341 7131 4336 7118 4309 7142 4316 7152